sensor_id;sensor_type;location;lat;lon;timestamp;temperature;humidity
16523;DHT22;19889;52.546;13.348;2023-04-01T00:00:46;12.30;99.90
16523;DHT22;19889;52.546;13.348;2023-04-01T00:03:13;12.30;99.90
16523;DHT22;19889;52.546;13.348;2023-04-01T00:05:40;12.30;99.90
16523;DHT22;19889;52.546;13.348;2023-04-01T00:08:07;12.30;99.90
16523;DHT22;19889;52.546;13.348;2023-04-01T00:10:34;12.30;99.90
16523;DHT22;19889;52.546;13.348;2023-04-01T00:13:02;12.30;99.90
16523;DHT22;19889;52.546;13.348;2023-04-01T00:15:30;12.30;99.90
16523;DHT22;19889;52.546;13.348;2023-04-01T00:17:57;12.30;99.90
16523;DHT22;19889;52.546;13.348;2023-04-01T00:20:24;12.30;99.90
16523;DHT22;19889;52.546;13.348;2023-04-01T00:22:51;12.30;99.90
16523;DHT22;19889;52.546;13.348;2023-04-01T00:25:18;12.30;99.90
16523;DHT22;19889;52.546;13.348;2023-04-01T00:27:45;12.30;99.90
16523;DHT22;19889;52.546;13.348;2023-04-01T00:30:14;12.20;99.90
16523;DHT22;19889;52.546;13.348;2023-04-01T00:32:41;12.30;99.90
16523;DHT22;19889;52.546;13.348;2023-04-01T00:35:08;12.30;99.90
16523;DHT22;19889;52.546;13.348;2023-04-01T00:37:37;12.30;99.90
16523;DHT22;19889;52.546;13.348;2023-04-01T00:40:23;12.30;99.90
16523;DHT22;19889;52.546;13.348;2023-04-01T00:42:50;12.30;99.90
16523;DHT22;19889;52.546;13.348;2023-04-01T00:45:27;12.30;99.90
16523;DHT22;19889;52.546;13.348;2023-04-01T00:47:56;12.30;99.90
16523;DHT22;19889;52.546;13.348;2023-04-01T00:50:26;12.30;99.90
16523;DHT22;19889;52.546;13.348;2023-04-01T00:52:54;12.30;99.90
16523;DHT22;19889;52.546;13.348;2023-04-01T00:55:21;12.30;99.90
16523;DHT22;19889;52.546;13.348;2023-04-01T00:57:50;12.30;99.90
16523;DHT22;19889;52.546;13.348;2023-04-01T01:00:18;12.30;99.90
16523;DHT22;19889;52.546;13.348;2023-04-01T01:02:50;12.30;99.90
16523;DHT22;19889;52.546;13.348;2023-04-01T01:05:20;12.30;99.90
16523;DHT22;19889;52.546;13.348;2023-04-01T01:07:56;12.30;99.90
16523;DHT22;19889;52.546;13.348;2023-04-01T01:10:28;12.30;99.90
16523;DHT22;19889;52.546;13.348;2023-04-01T01:13:03;12.30;99.90
16523;DHT22;19889;52.546;13.348;2023-04-01T01:15:39;12.30;99.90
16523;DHT22;19889;52.546;13.348;2023-04-01T01:18:16;12.30;99.90
16523;DHT22;19889;52.546;13.348;2023-04-01T01:21:05;12.30;99.90
16523;DHT22;19889;52.546;13.348;2023-04-01T01:26:51;12.30;99.90
16523;DHT22;19889;52.546;13.348;2023-04-01T01:29:53;12.30;99.90
16523;DHT22;19889;52.546;13.348;2023-04-01T01:35:22;12.30;99.90
16523;DHT22;19889;52.546;13.348;2023-04-01T01:37:54;11.70;99.90
16523;DHT22;19889;52.546;13.348;2023-04-01T01:40:22;12.30;99.90
16523;DHT22;19889;52.546;13.348;2023-04-01T01:42:55;12.20;99.90
16523;DHT22;19889;52.546;13.348;2023-04-01T01:45:25;12.20;99.90
16523;DHT22;19889;52.546;13.348;2023-04-01T01:47:55;12.20;99.90
16523;DHT22;19889;52.546;13.348;2023-04-01T01:50:26;12.30;99.90
16523;DHT22;19889;52.546;13.348;2023-04-01T01:53:01;12.30;99.90
16523;DHT22;19889;52.546;13.348;2023-04-01T01:55:30;12.20;99.90
16523;DHT22;19889;52.546;13.348;2023-04-01T01:57:59;12.20;99.90
16523;DHT22;19889;52.546;13.348;2023-04-01T02:00:28;12.30;99.90
16523;DHT22;19889;52.546;13.348;2023-04-01T02:02:57;12.40;99.90
16523;DHT22;19889;52.546;13.348;2023-04-01T02:05:28;13.10;99.90
16523;DHT22;19889;52.546;13.348;2023-04-01T02:08:05;12.30;99.90
16523;DHT22;19889;52.546;13.348;2023-04-01T02:10:36;12.20;99.90
16523;DHT22;19889;52.546;13.348;2023-04-01T02:13:09;12.30;99.90
16523;DHT22;19889;52.546;13.348;2023-04-01T02:15:42;12.20;99.90
16523;DHT22;19889;52.546;13.348;2023-04-01T02:18:12;12.20;99.90
16523;DHT22;19889;52.546;13.348;2023-04-01T02:20:42;12.20;99.90
16523;DHT22;19889;52.546;13.348;2023-04-01T02:23:10;12.20;99.90
16523;DHT22;19889;52.546;13.348;2023-04-01T02:25:38;12.20;99.90
16523;DHT22;19889;52.546;13.348;2023-04-01T02:28:07;12.40;99.90
16523;DHT22;19889;52.546;13.348;2023-04-01T02:30:36;12.20;99.90
16523;DHT22;19889;52.546;13.348;2023-04-01T02:33:06;12.20;99.90
16523;DHT22;19889;52.546;13.348;2023-04-01T02:35:34;12.20;99.90
16523;DHT22;19889;52.546;13.348;2023-04-01T02:38:04;12.20;99.90
16523;DHT22;19889;52.546;13.348;2023-04-01T02:40:41;12.20;99.90
16523;DHT22;19889;52.546;13.348;2023-04-01T02:43:09;12.20;99.90
16523;DHT22;19889;52.546;13.348;2023-04-01T02:45:36;12.20;99.90
16523;DHT22;19889;52.546;13.348;2023-04-01T02:48:04;12.20;99.90
16523;DHT22;19889;52.546;13.348;2023-04-01T02:50:31;12.20;99.90
16523;DHT22;19889;52.546;13.348;2023-04-01T02:52:58;12.20;99.90
16523;DHT22;19889;52.546;13.348;2023-04-01T02:55:27;12.20;99.90
16523;DHT22;19889;52.546;13.348;2023-04-01T02:57:54;12.10;99.90
16523;DHT22;19889;52.546;13.348;2023-04-01T03:00:20;12.10;99.90
16523;DHT22;19889;52.546;13.348;2023-04-01T03:02:47;12.10;99.90
16523;DHT22;19889;52.546;13.348;2023-04-01T03:05:15;12.10;99.90
16523;DHT22;19889;52.546;13.348;2023-04-01T03:07:42;12.10;99.90
16523;DHT22;19889;52.546;13.348;2023-04-01T03:10:09;12.10;99.90
16523;DHT22;19889;52.546;13.348;2023-04-01T03:12:38;12.10;99.90
16523;DHT22;19889;52.546;13.348;2023-04-01T03:15:06;12.10;99.90
16523;DHT22;19889;52.546;13.348;2023-04-01T03:17:33;12.10;99.90
16523;DHT22;19889;52.546;13.348;2023-04-01T03:20:00;12.10;99.90
16523;DHT22;19889;52.546;13.348;2023-04-01T03:22:28;12.10;99.90
16523;DHT22;19889;52.546;13.348;2023-04-01T03:24:55;12.10;99.90
16523;DHT22;19889;52.546;13.348;2023-04-01T03:27:22;12.10;99.90
16523;DHT22;19889;52.546;13.348;2023-04-01T03:29:50;12.10;99.90
16523;DHT22;19889;52.546;13.348;2023-04-01T03:32:26;12.50;99.90
16523;DHT22;19889;52.546;13.348;2023-04-01T03:34:53;12.10;99.90
16523;DHT22;19889;52.546;13.348;2023-04-01T03:37:20;12.10;99.90
16523;DHT22;19889;52.546;13.348;2023-04-01T03:39:47;12.10;99.90
16523;DHT22;19889;52.546;13.348;2023-04-01T03:42:14;12.10;99.90
16523;DHT22;19889;52.546;13.348;2023-04-01T03:44:42;12.10;99.90
16523;DHT22;19889;52.546;13.348;2023-04-01T03:47:11;12.10;99.90
16523;DHT22;19889;52.546;13.348;2023-04-01T03:49:38;12.30;99.90
16523;DHT22;19889;52.546;13.348;2023-04-01T03:52:08;12.10;99.90
16523;DHT22;19889;52.546;13.348;2023-04-01T03:54:36;12.10;99.90
16523;DHT22;19889;52.546;13.348;2023-04-01T03:57:03;12.10;99.90
16523;DHT22;19889;52.546;13.348;2023-04-01T03:59:31;12.10;99.90
16523;DHT22;19889;52.546;13.348;2023-04-01T04:01:58;12.10;99.90
16523;DHT22;19889;52.546;13.348;2023-04-01T04:04:27;12.10;99.90
16523;DHT22;19889;52.546;13.348;2023-04-01T04:06:54;12.10;99.90
16523;DHT22;19889;52.546;13.348;2023-04-01T04:09:23;12.10;99.90
16523;DHT22;19889;52.546;13.348;2023-04-01T04:11:50;12.10;99.90
16523;DHT22;19889;52.546;13.348;2023-04-01T04:14:17;12.10;99.90
16523;DHT22;19889;52.546;13.348;2023-04-01T04:16:45;12.10;99.90
16523;DHT22;19889;52.546;13.348;2023-04-01T04:19:12;12.10;99.90
16523;DHT22;19889;52.546;13.348;2023-04-01T04:21:41;12.10;99.90
16523;DHT22;19889;52.546;13.348;2023-04-01T04:24:09;12.10;99.90
16523;DHT22;19889;52.546;13.348;2023-04-01T04:26:59;12.10;99.90
16523;DHT22;19889;52.546;13.348;2023-04-01T04:29:26;12.10;99.90
16523;DHT22;19889;52.546;13.348;2023-04-01T04:31:53;12.20;99.90
16523;DHT22;19889;52.546;13.348;2023-04-01T04:34:20;12.00;99.90
16523;DHT22;19889;52.546;13.348;2023-04-01T04:36:49;12.10;99.90
16523;DHT22;19889;52.546;13.348;2023-04-01T04:39:17;12.10;99.90
16523;DHT22;19889;52.546;13.348;2023-04-01T04:41:44;12.10;99.90
16523;DHT22;19889;52.546;13.348;2023-04-01T04:44:11;12.10;99.90
16523;DHT22;19889;52.546;13.348;2023-04-01T04:46:38;12.10;99.90
16523;DHT22;19889;52.546;13.348;2023-04-01T04:49:12;12.10;99.90
16523;DHT22;19889;52.546;13.348;2023-04-01T04:51:39;12.10;99.90
16523;DHT22;19889;52.546;13.348;2023-04-01T04:54:07;12.20;99.90
16523;DHT22;19889;52.546;13.348;2023-04-01T04:56:53;12.10;99.90
16523;DHT22;19889;52.546;13.348;2023-04-01T04:59:22;12.10;99.90
16523;DHT22;19889;52.546;13.348;2023-04-01T05:02:03;12.10;99.90
16523;DHT22;19889;52.546;13.348;2023-04-01T05:04:34;12.10;99.90
16523;DHT22;19889;52.546;13.348;2023-04-01T05:07:02;12.10;99.90
16523;DHT22;19889;52.546;13.348;2023-04-01T05:09:31;12.10;99.90
16523;DHT22;19889;52.546;13.348;2023-04-01T05:11:59;12.10;99.90
16523;DHT22;19889;52.546;13.348;2023-04-01T05:14:32;12.60;99.90
16523;DHT22;19889;52.546;13.348;2023-04-01T05:17:09;12.10;99.90
16523;DHT22;19889;52.546;13.348;2023-04-01T05:19:36;12.10;99.90
16523;DHT22;19889;52.546;13.348;2023-04-01T05:22:04;12.30;99.90
16523;DHT22;19889;52.546;13.348;2023-04-01T05:24:32;12.10;99.90
16523;DHT22;19889;52.546;13.348;2023-04-01T05:26:59;12.10;99.90
16523;DHT22;19889;52.546;13.348;2023-04-01T05:29:27;12.10;99.90
16523;DHT22;19889;52.546;13.348;2023-04-01T05:32:01;12.10;99.90
16523;DHT22;19889;52.546;13.348;2023-04-01T05:34:28;12.80;99.90
16523;DHT22;19889;52.546;13.348;2023-04-01T05:36:55;11.90;99.90
16523;DHT22;19889;52.546;13.348;2023-04-01T05:39:22;12.10;99.90
16523;DHT22;19889;52.546;13.348;2023-04-01T05:41:51;12.10;99.90
16523;DHT22;19889;52.546;13.348;2023-04-01T05:44:18;12.10;99.90
16523;DHT22;19889;52.546;13.348;2023-04-01T05:46:48;12.10;99.90
16523;DHT22;19889;52.546;13.348;2023-04-01T05:49:19;12.10;99.90
16523;DHT22;19889;52.546;13.348;2023-04-01T05:51:47;12.10;99.90
16523;DHT22;19889;52.546;13.348;2023-04-01T05:54:14;12.10;99.90
16523;DHT22;19889;52.546;13.348;2023-04-01T05:56:43;12.10;99.90
16523;DHT22;19889;52.546;13.348;2023-04-01T05:59:12;12.10;99.90
16523;DHT22;19889;52.546;13.348;2023-04-01T06:01:39;12.20;99.90
16523;DHT22;19889;52.546;13.348;2023-04-01T06:04:09;12.00;99.90
16523;DHT22;19889;52.546;13.348;2023-04-01T06:06:36;12.10;99.90
16523;DHT22;19889;52.546;13.348;2023-04-01T06:09:13;12.10;99.90
16523;DHT22;19889;52.546;13.348;2023-04-01T06:12:08;11.60;99.90
16523;DHT22;19889;52.546;13.348;2023-04-01T06:14:54;12.10;99.90
16523;DHT22;19889;52.546;13.348;2023-04-01T06:17:30;12.10;99.90
16523;DHT22;19889;52.546;13.348;2023-04-01T06:20:06;12.10;99.90
16523;DHT22;19889;52.546;13.348;2023-04-01T06:22:53;12.20;99.90
16523;DHT22;19889;52.546;13.348;2023-04-01T06:25:52;12.10;99.90
16523;DHT22;19889;52.546;13.348;2023-04-01T06:29:05;12.30;99.90
16523;DHT22;19889;52.546;13.348;2023-04-01T06:31:54;12.10;99.90
16523;DHT22;19889;52.546;13.348;2023-04-01T06:34:39;12.10;99.90
16523;DHT22;19889;52.546;13.348;2023-04-01T06:40:37;12.10;99.90
16523;DHT22;19889;52.546;13.348;2023-04-01T06:43:16;12.10;99.90
16523;DHT22;19889;52.546;13.348;2023-04-01T06:46:14;12.50;99.90
16523;DHT22;19889;52.546;13.348;2023-04-01T06:49:17;12.10;99.90
16523;DHT22;19889;52.546;13.348;2023-04-01T06:52:23;12.20;99.90
16523;DHT22;19889;52.546;13.348;2023-04-01T06:55:21;12.40;99.90
16523;DHT22;19889;52.546;13.348;2023-04-01T06:58:21;12.10;99.90
16523;DHT22;19889;52.546;13.348;2023-04-01T07:00:51;12.10;99.90
16523;DHT22;19889;52.546;13.348;2023-04-01T07:03:23;12.80;99.90
16523;DHT22;19889;52.546;13.348;2023-04-01T07:05:59;12.10;99.90
16523;DHT22;19889;52.546;13.348;2023-04-01T07:08:29;12.20;99.90
16523;DHT22;19889;52.546;13.348;2023-04-01T07:11:01;12.20;99.90
16523;DHT22;19889;52.546;13.348;2023-04-01T07:13:52;12.20;99.90
16523;DHT22;19889;52.546;13.348;2023-04-01T07:16:23;12.20;99.90
16523;DHT22;19889;52.546;13.348;2023-04-01T07:18:54;12.30;99.90
16523;DHT22;19889;52.546;13.348;2023-04-01T07:21:31;12.20;99.90
16523;DHT22;19889;52.546;13.348;2023-04-01T07:24:06;12.20;99.90
16523;DHT22;19889;52.546;13.348;2023-04-01T07:26:42;12.20;99.90
16523;DHT22;19889;52.546;13.348;2023-04-01T07:29:21;12.20;99.90
16523;DHT22;19889;52.546;13.348;2023-04-01T07:32:15;12.20;99.90
16523;DHT22;19889;52.546;13.348;2023-04-01T07:35:07;12.30;99.90
16523;DHT22;19889;52.546;13.348;2023-04-01T07:37:43;12.30;99.90
16523;DHT22;19889;52.546;13.348;2023-04-01T07:40:24;12.30;99.90
16523;DHT22;19889;52.546;13.348;2023-04-01T07:43:28;12.30;99.90
16523;DHT22;19889;52.546;13.348;2023-04-01T07:46:33;12.30;99.90
16523;DHT22;19889;52.546;13.348;2023-04-01T07:49:06;12.30;99.90
16523;DHT22;19889;52.546;13.348;2023-04-01T07:51:38;12.70;99.90
16523;DHT22;19889;52.546;13.348;2023-04-01T07:54:13;12.30;99.90
16523;DHT22;19889;52.546;13.348;2023-04-01T07:56:46;12.30;99.90
16523;DHT22;19889;52.546;13.348;2023-04-01T07:59:26;12.30;99.90
16523;DHT22;19889;52.546;13.348;2023-04-01T08:02:06;12.30;99.90
16523;DHT22;19889;52.546;13.348;2023-04-01T08:04:48;12.30;99.90
16523;DHT22;19889;52.546;13.348;2023-04-01T08:07:21;12.40;99.90
16523;DHT22;19889;52.546;13.348;2023-04-01T08:10:19;12.40;99.90
16523;DHT22;19889;52.546;13.348;2023-04-01T08:13:12;12.40;99.90
16523;DHT22;19889;52.546;13.348;2023-04-01T08:16:08;12.60;99.90
16523;DHT22;19889;52.546;13.348;2023-04-01T08:18:50;12.40;99.90
16523;DHT22;19889;52.546;13.348;2023-04-01T08:21:24;12.50;99.90
16523;DHT22;19889;52.546;13.348;2023-04-01T08:23:52;13.00;99.90
16523;DHT22;19889;52.546;13.348;2023-04-01T08:26:30;12.50;99.90
16523;DHT22;19889;52.546;13.348;2023-04-01T08:29:01;12.50;99.90
16523;DHT22;19889;52.546;13.348;2023-04-01T08:31:35;12.50;99.90
16523;DHT22;19889;52.546;13.348;2023-04-01T08:34:08;12.50;99.90
16523;DHT22;19889;52.546;13.348;2023-04-01T08:36:40;13.20;99.90
16523;DHT22;19889;52.546;13.348;2023-04-01T08:39:16;12.40;99.90
16523;DHT22;19889;52.546;13.348;2023-04-01T08:45:20;12.40;99.90
16523;DHT22;19889;52.546;13.348;2023-04-01T08:54:11;12.20;99.90
16523;DHT22;19889;52.546;13.348;2023-04-01T08:56:46;12.20;99.90
16523;DHT22;19889;52.546;13.348;2023-04-01T08:59:31;12.30;99.90
16523;DHT22;19889;52.546;13.348;2023-04-01T09:02:34;12.10;99.90
16523;DHT22;19889;52.546;13.348;2023-04-01T09:05:31;12.10;99.90
16523;DHT22;19889;52.546;13.348;2023-04-01T09:08:11;12.10;99.90
16523;DHT22;19889;52.546;13.348;2023-04-01T09:11:03;12.20;99.90
16523;DHT22;19889;52.546;13.348;2023-04-01T09:14:17;12.20;99.90
16523;DHT22;19889;52.546;13.348;2023-04-01T09:17:20;12.20;99.90
16523;DHT22;19889;52.546;13.348;2023-04-01T09:20:05;12.30;99.90
16523;DHT22;19889;52.546;13.348;2023-04-01T09:22:46;12.20;99.90
16523;DHT22;19889;52.546;13.348;2023-04-01T09:25:34;12.50;99.90
16523;DHT22;19889;52.546;13.348;2023-04-01T09:28:10;12.30;99.90
16523;DHT22;19889;52.546;13.348;2023-04-01T09:31:14;12.20;99.90
16523;DHT22;19889;52.546;13.348;2023-04-01T09:34:31;12.20;99.90
16523;DHT22;19889;52.546;13.348;2023-04-01T09:37:19;12.20;99.90
16523;DHT22;19889;52.546;13.348;2023-04-01T09:40:16;12.10;99.90
16523;DHT22;19889;52.546;13.348;2023-04-01T09:43:22;12.10;99.90
16523;DHT22;19889;52.546;13.348;2023-04-01T09:46:04;12.10;99.90
16523;DHT22;19889;52.546;13.348;2023-04-01T09:48:46;12.10;99.90
16523;DHT22;19889;52.546;13.348;2023-04-01T09:51:31;12.10;99.90
16523;DHT22;19889;52.546;13.348;2023-04-01T09:54:13;12.20;99.90
16523;DHT22;19889;52.546;13.348;2023-04-01T10:06:44;12.10;99.90
16523;DHT22;19889;52.546;13.348;2023-04-01T10:09:57;12.10;99.90
16523;DHT22;19889;52.546;13.348;2023-04-01T10:12:55;12.00;99.90
16523;DHT22;19889;52.546;13.348;2023-04-01T10:15:54;11.90;99.90
16523;DHT22;19889;52.546;13.348;2023-04-01T10:18:41;11.90;99.90
16523;DHT22;19889;52.546;13.348;2023-04-01T10:21:57;11.90;99.90
16523;DHT22;19889;52.546;13.348;2023-04-01T10:27:45;11.90;99.90
16523;DHT22;19889;52.546;13.348;2023-04-01T10:30:49;11.90;99.90
16523;DHT22;19889;52.546;13.348;2023-04-01T10:33:56;11.80;99.90
16523;DHT22;19889;52.546;13.348;2023-04-01T10:36:46;11.90;99.90
16523;DHT22;19889;52.546;13.348;2023-04-01T10:39:49;11.70;99.90
16523;DHT22;19889;52.546;13.348;2023-04-01T10:42:56;11.80;99.90
16523;DHT22;19889;52.546;13.348;2023-04-01T10:52:41;11.70;99.90
16523;DHT22;19889;52.546;13.348;2023-04-01T10:55:54;11.80;99.90
16523;DHT22;19889;52.546;13.348;2023-04-01T10:59:11;12.10;99.90
16523;DHT22;19889;52.546;13.348;2023-04-01T11:06:12;11.80;99.90
16523;DHT22;19889;52.546;13.348;2023-04-01T11:09:18;11.80;99.90
16523;DHT22;19889;52.546;13.348;2023-04-01T11:21:45;11.40;99.90
16523;DHT22;19889;52.546;13.348;2023-04-01T11:28:00;11.70;99.90
16523;DHT22;19889;52.546;13.348;2023-04-01T11:30:45;11.70;99.90
16523;DHT22;19889;52.546;13.348;2023-04-01T11:33:18;11.90;99.90
16523;DHT22;19889;52.546;13.348;2023-04-01T11:35:57;11.60;99.90
16523;DHT22;19889;52.546;13.348;2023-04-01T11:39:00;12.80;99.90
16523;DHT22;19889;52.546;13.348;2023-04-01T11:41:54;11.60;99.90
16523;DHT22;19889;52.546;13.348;2023-04-01T11:44:46;11.60;99.90
16523;DHT22;19889;52.546;13.348;2023-04-01T11:47:39;11.60;99.90
16523;DHT22;19889;52.546;13.348;2023-04-01T11:50:22;11.60;99.90
16523;DHT22;19889;52.546;13.348;2023-04-01T11:53:02;11.60;99.90
16523;DHT22;19889;52.546;13.348;2023-04-01T11:55:42;11.60;99.90
16523;DHT22;19889;52.546;13.348;2023-04-01T11:58:23;11.60;99.90
16523;DHT22;19889;52.546;13.348;2023-04-01T12:01:14;11.50;99.90
16523;DHT22;19889;52.546;13.348;2023-04-01T12:04:05;11.40;99.90
16523;DHT22;19889;52.546;13.348;2023-04-01T12:06:44;11.50;99.90
16523;DHT22;19889;52.546;13.348;2023-04-01T12:09:21;11.50;99.90
16523;DHT22;19889;52.546;13.348;2023-04-01T12:11:54;11.50;99.90
16523;DHT22;19889;52.546;13.348;2023-04-01T12:14:30;11.60;99.90
16523;DHT22;19889;52.546;13.348;2023-04-01T12:17:07;11.40;99.90
16523;DHT22;19889;52.546;13.348;2023-04-01T12:19:43;11.40;99.90
16523;DHT22;19889;52.546;13.348;2023-04-01T12:22:26;11.40;99.90
16523;DHT22;19889;52.546;13.348;2023-04-01T12:25:01;11.50;99.90
16523;DHT22;19889;52.546;13.348;2023-04-01T12:27:38;11.70;99.90
16523;DHT22;19889;52.546;13.348;2023-04-01T12:30:50;11.40;99.90
16523;DHT22;19889;52.546;13.348;2023-04-01T12:33:54;11.40;99.90
16523;DHT22;19889;52.546;13.348;2023-04-01T12:36:38;11.50;99.90
16523;DHT22;19889;52.546;13.348;2023-04-01T12:39:44;11.80;99.90
16523;DHT22;19889;52.546;13.348;2023-04-01T12:42:24;11.40;99.90
16523;DHT22;19889;52.546;13.348;2023-04-01T12:45:03;11.40;99.90
16523;DHT22;19889;52.546;13.348;2023-04-01T12:47:54;11.10;99.90
16523;DHT22;19889;52.546;13.348;2023-04-01T12:53:32;11.30;99.90
16523;DHT22;19889;52.546;13.348;2023-04-01T12:56:12;11.30;99.90
16523;DHT22;19889;52.546;13.348;2023-04-01T12:59:18;11.80;99.90
16523;DHT22;19889;52.546;13.348;2023-04-01T13:02:00;11.30;99.90
16523;DHT22;19889;52.546;13.348;2023-04-01T13:04:44;11.20;99.90
16523;DHT22;19889;52.546;13.348;2023-04-01T13:07:41;11.40;99.90
16523;DHT22;19889;52.546;13.348;2023-04-01T13:10:23;11.40;99.90
16523;DHT22;19889;52.546;13.348;2023-04-01T13:13:05;11.20;99.90
16523;DHT22;19889;52.546;13.348;2023-04-01T13:15:39;11.20;99.90
16523;DHT22;19889;52.546;13.348;2023-04-01T13:18:20;10.70;99.90
16523;DHT22;19889;52.546;13.348;2023-04-01T13:20:57;11.10;99.90
16523;DHT22;19889;52.546;13.348;2023-04-01T13:23:35;11.10;99.90
16523;DHT22;19889;52.546;13.348;2023-04-01T13:26:16;11.20;99.90
16523;DHT22;19889;52.546;13.348;2023-04-01T13:28:49;11.50;99.90
16523;DHT22;19889;52.546;13.348;2023-04-01T13:31:31;11.20;99.90
16523;DHT22;19889;52.546;13.348;2023-04-01T13:34:14;11.20;99.90
16523;DHT22;19889;52.546;13.348;2023-04-01T13:36:53;11.20;99.90
16523;DHT22;19889;52.546;13.348;2023-04-01T13:39:29;11.10;99.90
16523;DHT22;19889;52.546;13.348;2023-04-01T13:42:14;11.10;99.90
16523;DHT22;19889;52.546;13.348;2023-04-01T13:44:46;11.40;99.90
16523;DHT22;19889;52.546;13.348;2023-04-01T13:47:29;11.10;99.90
16523;DHT22;19889;52.546;13.348;2023-04-01T13:50:17;11.10;99.90
16523;DHT22;19889;52.546;13.348;2023-04-01T13:53:13;11.10;99.90
16523;DHT22;19889;52.546;13.348;2023-04-01T13:55:55;11.60;99.90
16523;DHT22;19889;52.546;13.348;2023-04-01T14:01:30;11.30;99.90
16523;DHT22;19889;52.546;13.348;2023-04-01T14:04:30;10.90;99.90
16523;DHT22;19889;52.546;13.348;2023-04-01T14:07:14;11.00;99.90
16523;DHT22;19889;52.546;13.348;2023-04-01T14:09:50;10.90;99.90
16523;DHT22;19889;52.546;13.348;2023-04-01T14:12:29;10.70;99.90
16523;DHT22;19889;52.546;13.348;2023-04-01T14:18:22;11.00;99.90
16523;DHT22;19889;52.546;13.348;2023-04-01T14:20:54;10.80;99.90
16523;DHT22;19889;52.546;13.348;2023-04-01T14:23:45;10.90;99.90
16523;DHT22;19889;52.546;13.348;2023-04-01T14:26:35;10.90;99.90
16523;DHT22;19889;52.546;13.348;2023-04-01T14:29:11;10.80;99.90
16523;DHT22;19889;52.546;13.348;2023-04-01T14:31:51;10.90;99.90
16523;DHT22;19889;52.546;13.348;2023-04-01T14:34:31;10.90;99.90
16523;DHT22;19889;52.546;13.348;2023-04-01T14:37:15;10.90;99.90
16523;DHT22;19889;52.546;13.348;2023-04-01T14:40:26;10.80;99.90
16523;DHT22;19889;52.546;13.348;2023-04-01T14:43:06;11.00;99.90
16523;DHT22;19889;52.546;13.348;2023-04-01T14:45:59;11.00;99.90
16523;DHT22;19889;52.546;13.348;2023-04-01T14:48:33;10.60;99.90
16523;DHT22;19889;52.546;13.348;2023-04-01T14:51:13;10.60;99.90
16523;DHT22;19889;52.546;13.348;2023-04-01T14:53:44;10.50;99.90
16523;DHT22;19889;52.546;13.348;2023-04-01T14:56:35;10.50;99.90
16523;DHT22;19889;52.546;13.348;2023-04-01T14:59:09;10.50;99.90
16523;DHT22;19889;52.546;13.348;2023-04-01T15:01:40;10.50;99.90
16523;DHT22;19889;52.546;13.348;2023-04-01T15:07:25;10.40;99.90
16523;DHT22;19889;52.546;13.348;2023-04-01T15:10:02;10.30;99.90
16523;DHT22;19889;52.546;13.348;2023-04-01T15:12:35;10.30;99.90
16523;DHT22;19889;52.546;13.348;2023-04-01T15:15:19;10.30;99.90
16523;DHT22;19889;52.546;13.348;2023-04-01T15:17:58;10.20;99.90
16523;DHT22;19889;52.546;13.348;2023-04-01T15:20:50;10.20;99.90
16523;DHT22;19889;52.546;13.348;2023-04-01T15:23:28;10.10;99.90
16523;DHT22;19889;52.546;13.348;2023-04-01T15:26:17;10.10;99.90
16523;DHT22;19889;52.546;13.348;2023-04-01T15:28:56;10.20;99.90
16523;DHT22;19889;52.546;13.348;2023-04-01T15:31:31;10.20;99.90
16523;DHT22;19889;52.546;13.348;2023-04-01T15:34:19;10.20;99.90
16523;DHT22;19889;52.546;13.348;2023-04-01T15:36:53;10.20;99.90
16523;DHT22;19889;52.546;13.348;2023-04-01T15:39:30;10.20;99.90
16523;DHT22;19889;52.546;13.348;2023-04-01T15:42:20;10.20;99.90
16523;DHT22;19889;52.546;13.348;2023-04-01T15:45:05;10.20;99.90
16523;DHT22;19889;52.546;13.348;2023-04-01T15:47:38;10.10;99.90
16523;DHT22;19889;52.546;13.348;2023-04-01T15:53:35;10.10;99.90
16523;DHT22;19889;52.546;13.348;2023-04-01T15:56:21;10.10;99.90
16523;DHT22;19889;52.546;13.348;2023-04-01T15:58:59;10.10;99.90
16523;DHT22;19889;52.546;13.348;2023-04-01T16:01:37;10.10;99.90
16523;DHT22;19889;52.546;13.348;2023-04-01T16:04:20;10.10;99.90
16523;DHT22;19889;52.546;13.348;2023-04-01T16:07:02;10.00;99.90
16523;DHT22;19889;52.546;13.348;2023-04-01T16:09:43;12.00;99.90
16523;DHT22;19889;52.546;13.348;2023-04-01T16:12:18;10.00;99.90
16523;DHT22;19889;52.546;13.348;2023-04-01T16:14:58;10.10;99.90
16523;DHT22;19889;52.546;13.348;2023-04-01T16:17:42;10.00;99.90
16523;DHT22;19889;52.546;13.348;2023-04-01T16:20:19;10.00;99.90
16523;DHT22;19889;52.546;13.348;2023-04-01T16:22:53;10.00;99.90
16523;DHT22;19889;52.546;13.348;2023-04-01T16:25:31;10.00;99.90
16523;DHT22;19889;52.546;13.348;2023-04-01T16:28:14;10.00;99.90
16523;DHT22;19889;52.546;13.348;2023-04-01T16:30:48;9.90;99.90
16523;DHT22;19889;52.546;13.348;2023-04-01T16:33:23;9.90;99.90
16523;DHT22;19889;52.546;13.348;2023-04-01T16:35:57;9.80;99.90
16523;DHT22;19889;52.546;13.348;2023-04-01T16:38:33;9.80;99.90
16523;DHT22;19889;52.546;13.348;2023-04-01T16:41:11;9.80;99.90
16523;DHT22;19889;52.546;13.348;2023-04-01T16:43:43;9.80;99.90
16523;DHT22;19889;52.546;13.348;2023-04-01T16:46:28;9.80;99.90
16523;DHT22;19889;52.546;13.348;2023-04-01T16:49:13;9.80;99.90
16523;DHT22;19889;52.546;13.348;2023-04-01T16:51:47;9.80;99.90
16523;DHT22;19889;52.546;13.348;2023-04-01T16:54:26;9.80;99.90
16523;DHT22;19889;52.546;13.348;2023-04-01T16:57:01;9.80;99.90
16523;DHT22;19889;52.546;13.348;2023-04-01T16:59:34;9.80;99.90
16523;DHT22;19889;52.546;13.348;2023-04-01T17:02:04;9.70;99.90
16523;DHT22;19889;52.546;13.348;2023-04-01T17:04:39;9.60;99.90
16523;DHT22;19889;52.546;13.348;2023-04-01T17:07:20;9.60;99.90
16523;DHT22;19889;52.546;13.348;2023-04-01T17:09:58;9.40;99.90
16523;DHT22;19889;52.546;13.348;2023-04-01T17:12:34;9.40;99.90
16523;DHT22;19889;52.546;13.348;2023-04-01T17:15:11;9.40;99.90
16523;DHT22;19889;52.546;13.348;2023-04-01T17:17:47;9.40;99.90
16523;DHT22;19889;52.546;13.348;2023-04-01T17:20:40;9.40;99.90
16523;DHT22;19889;52.546;13.348;2023-04-01T17:23:14;9.40;99.90
16523;DHT22;19889;52.546;13.348;2023-04-01T17:25:52;9.30;99.90
16523;DHT22;19889;52.546;13.348;2023-04-01T17:28:34;10.00;99.90
16523;DHT22;19889;52.546;13.348;2023-04-01T17:31:09;9.30;99.90
16523;DHT22;19889;52.546;13.348;2023-04-01T17:33:50;7.80;99.90
16523;DHT22;19889;52.546;13.348;2023-04-01T17:36:30;9.20;99.90
16523;DHT22;19889;52.546;13.348;2023-04-01T17:39:07;9.20;99.90